Time;durP1;ratioP1;P1;durP2;ratioP2;P2;SDS_P1;SDS_P2;PMS_P1;PMS_P2;Temp;Humidity;BMP_temperature;BMP_pressure;BME280_temperature;BME280_humidity;BME280_pressure;Samples;Min_cycle;Max_cycle;Signal;HPM_P1;HPM_P2
2021/10/23 00:01:31;;;;;;;6.45;5.15;;;11.70;67.90;;;;;;4993795;28;20065;-84
2021/10/23 00:03:57;;;;;;;5.22;4.90;;;11.70;68.40;;;;;;5009707;28;20042;-84
2021/10/23 00:06:23;;;;;;;5.05;4.70;;;11.80;68.10;;;;;;4995911;28;20407;-84
2021/10/23 00:08:49;;;;;;;4.80;4.50;;;11.70;68.00;;;;;;4992680;28;20030;-84
2021/10/23 00:11:15;;;;;;;4.95;4.68;;;11.70;68.10;;;;;;5006603;28;20399;-83
2021/10/23 00:13:41;;;;;;;4.75;4.55;;;11.70;68.10;;;;;;4990376;28;20034;-84
2021/10/23 00:16:08;;;;;;;5.05;4.70;;;11.70;68.10;;;;;;5039868;28;20430;-84
2021/10/23 00:18:34;;;;;;;4.93;4.72;;;11.80;68.30;;;;;;4995397;28;20034;-84
2021/10/23 00:21:00;;;;;;;4.50;4.25;;;11.80;68.20;;;;;;4994116;28;20045;-83
2021/10/23 00:23:26;;;;;;;4.55;4.35;;;11.80;68.20;;;;;;5004260;28;20030;-83
2021/10/23 00:25:52;;;;;;;4.07;3.88;;;11.80;68.30;;;;;;4990532;28;20038;-85
2021/10/23 00:28:18;;;;;;;4.25;4.05;;;11.80;68.30;;;;;;4994981;28;20057;-84
2021/10/23 00:30:44;;;;;;;4.82;4.55;;;11.80;68.40;;;;;;5025487;28;20106;-84
2021/10/23 00:33:11;;;;;;;4.63;4.43;;;11.80;68.40;;;;;;4978514;28;20046;-84
2021/10/23 00:35:37;;;;;;;4.40;4.20;;;11.80;68.40;;;;;;4995560;28;20050;-84
2021/10/23 00:38:03;;;;;;;4.53;4.32;;;11.80;68.50;;;;;;4989612;28;20041;-84
2021/10/23 00:40:29;;;;;;;4.63;4.43;;;11.80;68.50;;;;;;4993393;28;20042;-83
2021/10/23 00:42:56;;;;;;;5.72;5.28;;;11.70;68.50;;;;;;5010219;28;20037;-83
2021/10/23 00:45:22;;;;;;;9.70;4.53;;;11.70;68.50;;;;;;4994085;28;20065;-83
2021/10/23 00:47:49;;;;;;;4.35;4.15;;;11.80;68.50;;;;;;4987234;28;20038;-82
2021/10/23 00:50:15;;;;;;;4.80;4.45;;;11.80;68.50;;;;;;4985974;28;20034;-84
2021/10/23 00:52:41;;;;;;;4.75;4.38;;;11.80;68.60;;;;;;5005567;28;20034;-84
2021/10/23 00:55:07;;;;;;;5.72;5.32;;;11.80;68.50;;;;;;5028223;28;20293;-84
2021/10/23 00:57:33;;;;;;;4.38;4.18;;;11.80;68.50;;;;;;4979099;28;20392;-84
2021/10/23 00:59:59;;;;;;;6.50;5.20;;;11.80;68.60;;;;;;4993242;28;20034;-84
2021/10/23 01:02:26;;;;;;;5.90;5.20;;;11.80;68.60;;;;;;5003518;28;20045;-84
2021/10/23 01:04:52;;;;;;;4.38;4.18;;;11.80;68.60;;;;;;4990816;28;20034;-84
2021/10/23 01:07:18;;;;;;;8.00;4.65;;;11.80;68.60;;;;;;4994534;28;20045;-84
2021/10/23 01:09:44;;;;;;;4.85;4.55;;;11.80;68.70;;;;;;5026588;28;20030;-84
2021/10/23 01:12:12;;;;;;;5.45;5.07;;;11.80;68.70;;;;;;4994681;28;20026;-84
2021/10/23 01:14:42;;;;;;;4.63;4.43;;;11.90;68.80;;;;;;4975777;28;20041;-84
2021/10/23 01:17:09;;;;;;;4.55;4.35;;;11.80;68.70;;;;;;4990185;28;20046;-84
2021/10/23 01:19:35;;;;;;;4.30;4.10;;;11.90;68.80;;;;;;4990593;28;20034;-83
2021/10/23 01:22:01;;;;;;;5.28;4.97;;;11.80;68.80;;;;;;4993828;28;20468;-83
2021/10/23 01:24:28;;;;;;;5.30;4.78;;;11.80;68.90;;;;;;4992285;28;20034;-84
2021/10/23 01:26:54;;;;;;;5.10;4.85;;;11.80;68.90;;;;;;4992928;28;20030;-83
2021/10/23 01:29:20;;;;;;;5.63;5.07;;;11.80;68.90;;;;;;5004400;28;20038;-84
2021/10/23 01:31:48;;;;;;;4.85;4.55;;;11.90;69.00;;;;;;4990322;28;20035;-83
2021/10/23 01:34:20;;;;;;;5.55;4.53;;;11.90;68.90;;;;;;5008591;28;20045;-84
2021/10/23 01:36:57;;;;;;;4.80;4.50;;;11.90;69.00;;;;;;4992835;28;20034;-84
2021/10/23 01:39:24;;;;;;;4.80;4.55;;;11.90;69.00;;;;;;4995477;28;20026;-84
2021/10/23 01:41:50;;;;;;;4.20;4.00;;;11.90;68.90;;;;;;5001865;28;20042;-83
2021/10/23 01:44:17;;;;;;;4.82;4.45;;;11.90;68.90;;;;;;4984034;28;20027;-84
2021/10/23 01:46:43;;;;;;;4.43;4.22;;;11.90;68.90;;;;;;5004001;28;20041;-83
2021/10/23 01:49:09;;;;;;;5.40;5.10;;;11.90;69.80;;;;;;4993273;28;20042;-83
2021/10/23 01:51:35;;;;;;;5.07;4.80;;;11.90;69.10;;;;;;4994673;28;20034;-84
2021/10/23 01:54:09;;;;;;;4.68;4.38;;;11.90;69.10;;;;;;4994711;28;20030;-84
2021/10/23 01:56:36;;;;;;;4.68;4.38;;;11.90;69.20;;;;;;4993309;28;20480;-83
2021/10/23 01:59:03;;;;;;;4.28;4.07;;;11.90;69.20;;;;;;5004860;28;20038;-84
2021/10/23 02:01:29;;;;;;;4.43;4.22;;;11.90;69.20;;;;;;4994626;28;20054;-83
2021/10/23 02:03:55;;;;;;;5.43;5.13;;;11.90;69.20;;;;;;5021112;28;20045;-84
2021/10/23 02:06:21;;;;;;;4.60;4.22;;;11.90;69.20;;;;;;4983772;28;20038;-84
2021/10/23 02:08:47;;;;;;;4.82;4.53;;;11.90;69.30;;;;;;4988303;28;20019;-84
2021/10/23 02:11:14;;;;;;;4.80;4.53;;;11.90;69.30;;;;;;5014470;28;20023;-84
2021/10/23 02:13:40;;;;;;;4.40;4.20;;;11.90;69.40;;;;;;5024074;28;20034;-84
2021/10/23 02:16:07;;;;;;;4.63;4.43;;;11.90;69.40;;;;;;4993402;28;20041;-84
2021/10/23 02:18:33;;;;;;;4.65;4.45;;;11.90;69.40;;;;;;5013795;28;20199;-83
2021/10/23 02:20:59;;;;;;;4.95;4.65;;;11.90;69.50;;;;;;4987040;28;20042;-83
2021/10/23 02:23:25;;;;;;;5.45;4.95;;;11.90;69.50;;;;;;4993060;28;20498;-84
2021/10/23 02:25:51;;;;;;;4.45;4.25;;;11.90;69.50;;;;;;4993099;28;20395;-83
2021/10/23 02:28:18;;;;;;;4.40;4.20;;;11.90;69.50;;;;;;4992129;28;20043;-84
2021/10/23 02:30:44;;;;;;;4.97;4.68;;;11.90;69.50;;;;;;4991990;28;20042;-84
2021/10/23 02:33:10;;;;;;;4.28;4.07;;;11.90;69.50;;;;;;4992576;28;20034;-85
2021/10/23 02:35:36;;;;;;;13.00;4.45;;;11.90;69.60;;;;;;5023908;28;20038;-83
2021/10/23 02:38:02;;;;;;;4.18;3.97;;;11.90;69.60;;;;;;5026898;28;20038;-84
2021/10/23 02:40:29;;;;;;;5.15;4.85;;;11.90;69.70;;;;;;4996229;28;20046;-82
2021/10/23 02:42:55;;;;;;;4.60;4.32;;;11.90;69.70;;;;;;4998152;28;20041;-84
2021/10/23 02:45:21;;;;;;;4.80;4.55;;;11.90;69.70;;;;;;4997810;28;20029;-84
2021/10/23 02:47:47;;;;;;;4.63;4.32;;;11.90;69.70;;;;;;5001603;28;20030;-84
2021/10/23 02:50:13;;;;;;;5.53;5.07;;;11.90;69.70;;;;;;4993775;28;20056;-84
2021/10/23 02:52:39;;;;;;;5.07;4.78;;;11.90;69.70;;;;;;4993390;28;20041;-83
2021/10/23 02:55:06;;;;;;;4.20;4.00;;;11.90;69.70;;;;;;4997585;28;20031;-84
2021/10/23 02:57:32;;;;;;;4.22;4.03;;;11.90;69.80;;;;;;4997308;28;20047;-84
2021/10/23 02:59:58;;;;;;;4.13;3.92;;;11.90;69.80;;;;;;4998348;28;20052;-84
2021/10/23 03:02:24;;;;;;;4.68;4.28;;;11.90;69.80;;;;;;4996338;28;20048;-84
2021/10/23 03:04:50;;;;;;;5.03;4.65;;;11.90;69.80;;;;;;4991093;28;20034;-84
2021/10/23 03:07:16;;;;;;;4.30;4.10;;;11.90;69.80;;;;;;4997633;28;20030;-84
2021/10/23 03:09:42;;;;;;;4.10;3.90;;;11.90;69.90;;;;;;4995362;28;20034;-84
2021/10/23 03:12:08;;;;;;;4.55;4.35;;;11.90;69.90;;;;;;4996277;28;20052;-84
2021/10/23 03:14:34;;;;;;;4.75;4.45;;;11.90;69.90;;;;;;5004745;28;20399;-84
2021/10/23 03:17:02;;;;;;;4.43;4.22;;;11.90;69.90;;;;;;4993216;28;20030;-84
2021/10/23 03:19:28;;;;;;;5.00;4.57;;;11.90;69.90;;;;;;4993303;28;20037;-84
2021/10/23 03:21:54;;;;;;;4.95;4.55;;;11.90;69.90;;;;;;4996961;28;20586;-84
2021/10/23 03:24:20;;;;;;;3.97;3.78;;;11.90;70.00;;;;;;4996887;28;20026;-84
2021/10/23 03:26:46;;;;;;;4.50;4.30;;;11.90;70.00;;;;;;4995635;28;20479;-84
2021/10/23 03:29:12;;;;;;;5.18;4.63;;;12.00;70.10;;;;;;4993625;28;20033;-84
2021/10/23 03:31:38;;;;;;;4.80;4.50;;;11.90;70.10;;;;;;5006638;28;20534;-84
2021/10/23 03:34:04;;;;;;;4.28;4.07;;;11.90;70.10;;;;;;5007282;28;20046;-84
2021/10/23 03:36:30;;;;;;;4.50;4.20;;;11.90;70.10;;;;;;4998161;28;20408;-84
2021/10/23 03:38:56;;;;;;;4.00;3.80;;;11.90;70.10;;;;;;4995587;28;20034;-84
2021/10/23 03:41:22;;;;;;;4.00;3.80;;;11.90;70.10;;;;;;4986935;28;20038;-84
2021/10/23 03:43:48;;;;;;;4.40;4.15;;;11.90;70.10;;;;;;5007400;28;20399;-83
2021/10/23 03:46:15;;;;;;;4.75;4.35;;;11.90;70.20;;;;;;4997579;28;20034;-84
2021/10/23 03:48:41;;;;;;;4.45;4.15;;;11.90;70.20;;;;;;4991238;28;20046;-84
2021/10/23 03:51:07;;;;;;;7.78;5.10;;;11.90;70.20;;;;;;4996415;28;20037;-84
2021/10/23 03:53:33;;;;;;;4.38;4.18;;;11.90;70.30;;;;;;4995070;28;20057;-84
2021/10/23 03:55:59;;;;;;;4.75;4.50;;;11.90;70.30;;;;;;4992396;28;20038;-84
2021/10/23 03:58:25;;;;;;;4.30;4.10;;;11.90;70.40;;;;;;4995805;28;20053;-84
2021/10/23 04:00:51;;;;;;;4.95;4.63;;;11.90;70.50;;;;;;4994955;28;20049;-84
2021/10/23 04:03:18;;;;;;;5.15;4.85;;;11.80;70.40;;;;;;4996418;28;20034;-84
2021/10/23 04:05:44;;;;;;;4.45;4.25;;;11.80;70.50;;;;;;4999107;28;20037;-84
2021/10/23 04:08:10;;;;;;;4.05;3.85;;;11.80;70.50;;;;;;5007064;28;20030;-84
2021/10/23 04:10:36;;;;;;;4.15;3.95;;;11.80;70.60;;;;;;4994493;28;20034;-84
2021/10/23 04:13:02;;;;;;;4.10;3.90;;;11.80;70.60;;;;;;4997535;28;20041;-84
2021/10/23 04:15:29;;;;;;;4.53;4.22;;;11.80;70.50;;;;;;4995190;28;20423;-84
2021/10/23 04:17:56;;;;;;;4.70;4.15;;;11.80;70.60;;;;;;4993044;28;20053;-84
2021/10/23 04:20:22;;;;;;;3.83;3.63;;;11.80;70.70;;;;;;4995530;28;20049;-84
2021/10/23 04:22:48;;;;;;;4.72;4.28;;;11.80;70.70;;;;;;4991400;28;20538;-84
2021/10/23 04:25:14;;;;;;;4.13;3.92;;;11.80;70.60;;;;;;4997267;28;20041;-85
2021/10/23 04:27:40;;;;;;;4.50;4.20;;;11.80;70.60;;;;;;4973520;28;20050;-87
2021/10/23 04:30:07;;;;;;;4.10;3.90;;;11.80;70.60;;;;;;4993314;28;20044;-86
2021/10/23 04:32:33;;;;;;;4.32;4.13;;;11.80;70.60;;;;;;5001965;28;20044;-86
2021/10/23 04:34:59;;;;;;;6.32;4.32;;;11.80;70.70;;;;;;4967045;28;20034;-83
2021/10/23 04:37:25;;;;;;;7.28;4.35;;;11.80;70.70;;;;;;5007597;28;20052;-82
2021/10/23 04:39:51;;;;;;;3.90;3.70;;;11.70;70.70;;;;;;4995993;28;20031;-81
2021/10/23 04:42:17;;;;;;;4.18;3.97;;;11.70;70.70;;;;;;4995108;28;20042;-80
2021/10/23 04:44:43;;;;;;;4.68;4.28;;;11.70;70.80;;;;;;4994325;28;20373;-81
2021/10/23 04:47:09;;;;;;;3.97;3.78;;;11.70;70.80;;;;;;4990108;28;20046;-80
2021/10/23 04:49:35;;;;;;;17.88;4.07;;;11.70;70.90;;;;;;5005694;28;20391;-80
2021/10/23 04:52:02;;;;;;;4.15;3.95;;;11.70;70.90;;;;;;5005011;28;20049;-82
2021/10/23 04:54:28;;;;;;;4.97;4.68;;;11.80;70.90;;;;;;4999194;28;20491;-81
2021/10/23 04:56:54;;;;;;;4.15;3.95;;;11.70;70.90;;;;;;4994525;28;20025;-81
2021/10/23 04:59:20;;;;;;;4.18;3.97;;;11.70;71.00;;;;;;4994428;28;20492;-82
2021/10/23 05:01:46;;;;;;;4.95;4.65;;;11.80;71.00;;;;;;4990232;28;20039;-80
2021/10/23 05:04:12;;;;;;;4.57;4.18;;;11.70;70.90;;;;;;4996507;28;20034;-80
2021/10/23 05:06:38;;;;;;;3.83;3.63;;;11.70;70.90;;;;;;4990285;28;20253;-80
2021/10/23 05:09:04;;;;;;;3.83;3.63;;;11.70;71.00;;;;;;4994796;28;20022;-80
2021/10/23 05:11:30;;;;;;;4.20;3.80;;;11.70;70.90;;;;;;4993452;28;20102;-81
2021/10/23 05:13:56;;;;;;;4.25;4.05;;;11.70;71.00;;;;;;4989342;28;20027;-82
2021/10/23 05:16:22;;;;;;;4.88;4.55;;;11.70;70.90;;;;;;4994267;28;20027;-81
2021/10/23 05:18:49;;;;;;;4.38;4.18;;;11.70;71.00;;;;;;4989807;28;20093;-81
2021/10/23 05:21:17;;;;;;;4.45;4.15;;;11.70;71.00;;;;;;4994844;28;20053;-81
2021/10/23 05:23:44;;;;;;;4.20;4.00;;;11.70;71.10;;;;;;4995008;28;20045;-81
2021/10/23 05:26:10;;;;;;;4.07;3.88;;;11.70;71.10;;;;;;4993394;28;20376;-81
2021/10/23 05:28:36;;;;;;;4.00;3.80;;;11.70;71.10;;;;;;4995976;28;20037;-81
2021/10/23 05:31:04;;;;;;;5.47;4.68;;;11.70;71.20;;;;;;4994602;28;20372;-81
2021/10/23 05:33:30;;;;;;;4.47;4.28;;;11.70;71.20;;;;;;4996029;28;20042;-81
2021/10/23 05:35:56;;;;;;;5.28;4.88;;;11.70;71.20;;;;;;4998564;28;20507;-82
2021/10/23 05:38:22;;;;;;;4.00;3.80;;;11.60;71.20;;;;;;5009884;28;20495;-81
2021/10/23 05:40:48;;;;;;;4.40;4.20;;;11.60;71.30;;;;;;4993916;28;20034;-81
2021/10/23 05:43:15;;;;;;;4.55;4.25;;;11.60;71.40;;;;;;4998803;28;20399;-81
2021/10/23 05:45:41;;;;;;;4.78;4.53;;;11.60;71.50;;;;;;4997538;28;20042;-81
2021/10/23 05:48:07;;;;;;;4.20;3.97;;;11.60;71.50;;;;;;4994340;28;20025;-81
2021/10/23 05:50:33;;;;;;;3.90;3.70;;;11.60;71.40;;;;;;4998142;28;20037;-81
2021/10/23 05:52:59;;;;;;;4.60;4.30;;;11.60;71.40;;;;;;4995845;28;20380;-81
2021/10/23 05:55:26;;;;;;;4.13;3.83;;;11.60;71.50;;;;;;4995553;28;20399;-81
2021/10/23 05:57:52;;;;;;;4.28;4.00;;;11.60;71.50;;;;;;4998870;28;20030;-81
2021/10/23 06:00:18;;;;;;;4.30;4.00;;;11.60;71.50;;;;;;4997735;28;20042;-81
2021/10/23 06:02:45;;;;;;;4.38;4.00;;;11.60;71.50;;;;;;4998218;28;20037;-81
2021/10/23 06:05:11;;;;;;;5.55;5.05;;;11.60;71.40;;;;;;4996984;28;20030;-80
2021/10/23 06:07:38;;;;;;;3.88;3.67;;;11.60;71.40;;;;;;4994212;28;20046;-81
2021/10/23 06:10:09;;;;;;;5.22;4.85;;;11.60;71.50;;;;;;5008799;28;20056;-81
2021/10/23 06:12:35;;;;;;;4.05;3.85;;;11.60;71.50;;;;;;4998548;28;20048;-81
2021/10/23 06:15:01;;;;;;;4.55;4.32;;;11.60;71.50;;;;;;5002811;28;20506;-82
2021/10/23 06:17:27;;;;;;;3.83;3.63;;;11.60;71.50;;;;;;4985536;28;20039;-86
2021/10/23 06:19:53;;;;;;;3.95;3.75;;;11.60;71.60;;;;;;5008362;28;20037;-85
2021/10/23 06:22:20;;;;;;;3.72;3.53;;;11.70;71.70;;;;;;4998542;28;20368;-88
2021/10/23 06:24:46;;;;;;;3.85;3.63;;;11.70;71.40;;;;;;5027853;28;20037;-83
2021/10/23 06:27:12;;;;;;;5.10;4.80;;;11.80;71.40;;;;;;4997525;28;20043;-85
2021/10/23 06:29:38;;;;;;;3.92;3.72;;;11.80;71.40;;;;;;4996659;28;20033;-85
2021/10/23 06:32:04;;;;;;;4.40;4.15;;;11.70;71.40;;;;;;4991659;28;20491;-84
2021/10/23 06:34:31;;;;;;;4.35;4.10;;;11.70;71.50;;;;;;4993671;28;20427;-84
2021/10/23 06:36:57;;;;;;;5.97;5.00;;;11.60;72.40;;;;;;4995986;28;20494;-86
2021/10/23 06:39:23;;;;;;;4.38;4.07;;;11.60;71.80;;;;;;4998725;28;20030;-82
2021/10/23 06:41:49;;;;;;;3.95;3.75;;;11.50;71.80;;;;;;5001147;28;20057;-83
2021/10/23 06:44:15;;;;;;;11.13;4.40;;;11.50;71.90;;;;;;5008089;28;20037;-83
2021/10/23 06:46:41;;;;;;;4.57;4.28;;;11.50;72.00;;;;;;4990443;28;20031;-86
2021/10/23 06:49:08;;;;;;;4.25;4.05;;;11.50;71.90;;;;;;4983730;28;20039;-88
2021/10/23 06:51:34;;;;;;;4.05;3.85;;;11.40;71.90;;;;;;4987259;28;20115;-87
2021/10/23 06:54:01;;;;;;;4.50;4.18;;;11.40;72.00;;;;;;4989215;28;20041;-88
2021/10/23 06:56:27;;;;;;;4.55;4.25;;;11.40;72.10;;;;;;5021111;28;20039;-88
2021/10/23 06:58:54;;;;;;;4.20;4.00;;;11.40;72.20;;;;;;5005486;28;20041;-89
2021/10/23 07:01:20;;;;;;;4.57;4.28;;;11.40;72.20;;;;;;5019642;28;20043;-86
2021/10/23 07:03:47;;;;;;;4.65;4.35;;;11.30;72.10;;;;;;4996123;28;20048;-88
2021/10/23 07:06:13;;;;;;;4.65;4.35;;;11.30;72.20;;;;;;5012268;28;20041;-87
2021/10/23 07:08:39;;;;;;;3.90;3.70;;;11.30;72.20;;;;;;4989827;28;20031;-88
2021/10/23 07:11:06;;;;;;;5.57;4.65;;;11.30;72.20;;;;;;4993130;28;20042;-87
2021/10/23 07:13:32;;;;;;;5.70;5.30;;;11.20;72.20;;;;;;4989741;28;20373;-78
2021/10/23 07:15:58;;;;;;;9.43;6.72;;;11.20;72.30;;;;;;4995986;28;20038;-78
2021/10/23 07:18:24;;;;;;;4.20;4.00;;;11.20;72.30;;;;;;4986374;28;20039;-90
2021/10/23 07:20:50;;;;;;;7.88;6.40;;;11.20;72.20;;;;;;4982706;28;20049;-90
2021/10/23 07:23:16;;;;;;;7.82;4.32;;;11.20;72.20;;;;;;4990729;28;20058;-89
2021/10/23 07:25:44;;;;;;;3.92;3.72;;;11.20;72.20;;;;;;4993918;28;20045;-91
2021/10/23 07:28:10;;;;;;;4.88;4.57;;;11.20;72.20;;;;;;5011897;28;20468;-90
2021/10/23 07:30:36;;;;;;;5.35;5.05;;;11.20;72.20;;;;;;5007638;28;20042;-91
2021/10/23 07:33:02;;;;;;;4.75;4.28;;;11.30;72.10;;;;;;4988273;28;20035;-90
2021/10/23 07:35:28;;;;;;;5.63;5.05;;;11.70;71.30;;;;;;4982765;28;20065;-87
2021/10/23 07:37:54;;;;;;;5.57;5.20;;;12.20;70.00;;;;;;5000771;28;20455;-91
2021/10/23 07:40:21;;;;;;;5.93;5.53;;;12.60;68.80;;;;;;4997929;28;20038;-88
2021/10/23 07:42:47;;;;;;;5.38;4.97;;;13.00;67.80;;;;;;4990617;28;20035;-86
2021/10/23 07:45:13;;;;;;;5.15;4.78;;;13.50;67.10;;;;;;4992691;28;20045;-86
2021/10/23 07:47:40;;;;;;;4.90;4.60;;;13.90;66.20;;;;;;4994629;28;20026;-85
2021/10/23 07:50:06;;;;;;;5.18;4.93;;;14.20;65.60;;;;;;4992688;28;20034;-85
2021/10/23 07:52:33;;;;;;;5.68;5.38;;;14.60;65.00;;;;;;5022688;28;20038;-87
2021/10/23 07:54:59;;;;;;;5.80;5.50;;;14.80;64.60;;;;;;4980290;28;20480;-85
2021/10/23 07:57:25;;;;;;;5.30;5.00;;;14.90;64.40;;;;;;4982024;28;20041;-86
2021/10/23 07:59:51;;;;;;;6.00;5.45;;;15.10;64.20;;;;;;4981687;28;20041;-86
2021/10/23 08:02:17;;;;;;;5.13;4.90;;;15.20;64.20;;;;;;4988965;28;20054;-85
2021/10/23 08:04:43;;;;;;;5.55;5.15;;;15.20;64.30;;;;;;4987775;28;20490;-86
2021/10/23 08:07:09;;;;;;;5.43;5.13;;;15.10;64.40;;;;;;4993354;28;20042;-84
2021/10/23 08:09:35;;;;;;;5.95;5.65;;;15.20;64.60;;;;;;4988177;28;20502;-86
2021/10/23 08:12:03;;;;;;;5.00;4.72;;;15.20;64.60;;;;;;5019828;28;20472;-86
2021/10/23 08:14:29;;;;;;;5.15;4.85;;;15.40;64.60;;;;;;4996345;28;20395;-87
2021/10/23 08:16:56;;;;;;;5.85;5.55;;;15.70;64.20;;;;;;4997321;28;20038;-88
2021/10/23 08:19:23;;;;;;;5.63;5.32;;;16.10;63.50;;;;;;4991675;28;20045;-93
2021/10/23 08:21:49;;;;;;;5.35;5.15;;;16.30;63.00;;;;;;4987544;28;20480;-89
2021/10/23 08:24:15;;;;;;;5.88;5.53;;;16.30;63.00;;;;;;4984438;28;20023;-87
2021/10/23 08:26:41;;;;;;;5.93;5.63;;;16.20;63.20;;;;;;5016698;28;20038;-92
2021/10/23 08:29:08;;;;;;;5.85;5.55;;;16.20;63.30;;;;;;4992643;28;20061;-89
2021/10/23 08:31:34;;;;;;;5.65;5.32;;;16.00;63.80;;;;;;4982603;28;20034;-84
2021/10/23 08:34:00;;;;;;;6.00;5.65;;;15.80;64.10;;;;;;4979975;28;20031;-88
2021/10/23 08:36:27;;;;;;;5.93;5.63;;;15.60;64.80;;;;;;4983895;28;20045;-85
2021/10/23 08:38:54;;;;;;;6.15;5.85;;;15.40;65.30;;;;;;4988467;28;20034;-85
2021/10/23 08:41:20;;;;;;;6.00;5.60;;;15.20;65.80;;;;;;5019067;28;20067;-83
2021/10/23 08:43:47;;;;;;;5.80;5.50;;;15.20;66.10;;;;;;4991868;28;20033;-83
2021/10/23 08:46:15;;;;;;;6.68;6.25;;;15.00;66.40;;;;;;5028115;28;20035;-84
2021/10/23 08:48:51;;;;;;;5.47;5.20;;;14.90;66.70;;;;;;4995368;28;20103;-84
2021/10/23 08:51:19;;;;;;;5.68;5.38;;;14.90;67.10;;;;;;4979943;28;20049;-83
2021/10/23 08:53:45;;;;;;;5.88;5.57;;;14.90;67.10;;;;;;4996029;28;20038;-84
2021/10/23 08:56:11;;;;;;;5.60;5.30;;;14.90;67.10;;;;;;4991963;28;20534;-85
2021/10/23 08:58:38;;;;;;;5.30;5.10;;;14.90;67.40;;;;;;4991077;28;20387;-86
2021/10/23 09:01:05;;;;;;;6.20;5.90;;;14.90;67.20;;;;;;4984335;28;20046;-90
2021/10/23 09:03:31;;;;;;;6.53;5.93;;;15.00;67.10;;;;;;4997307;28;20034;-87
2021/10/23 09:05:57;;;;;;;5.97;5.57;;;15.10;66.90;;;;;;4988507;28;20422;-89
2021/10/23 09:08:25;;;;;;;5.35;5.15;;;15.10;66.90;;;;;;5022892;28;20045;-91
2021/10/23 09:10:52;;;;;;;5.80;5.50;;;15.10;66.90;;;;;;4978024;28;20046;-86
2021/10/23 09:13:31;;;;;;;5.93;5.53;;;15.10;66.90;;;;;;5011869;28;20038;-83
2021/10/23 09:15:57;;;;;;;5.30;5.10;;;15.20;66.70;;;;;;4988963;28;20395;-81
2021/10/23 09:18:45;;;;;;;5.43;5.18;;;15.20;66.70;;;;;;4987832;28;20046;-81
2021/10/23 09:21:29;;;;;;;5.72;5.38;;;15.20;66.70;;;;;;4983593;28;20030;-80
2021/10/23 09:23:55;;;;;;;6.00;5.60;;;15.20;66.70;;;;;;5019923;28;20030;-81
2021/10/23 09:26:33;;;;;;;6.50;6.10;;;15.20;66.60;;;;;;5013756;28;20037;-80
2021/10/23 09:29:20;;;;;;;5.38;5.13;;;15.20;66.60;;;;;;4989212;28;20031;-82
2021/10/23 09:31:47;;;;;;;5.45;5.15;;;15.20;66.40;;;;;;4996140;28;20396;-86
2021/10/23 09:34:21;;;;;;;5.70;5.38;;;15.20;66.40;;;;;;4999129;28;20021;-81
2021/10/23 09:36:54;;;;;;;5.28;5.07;;;15.30;66.40;;;;;;5007493;28;20053;-81
2021/10/23 09:39:32;;;;;;;6.30;5.70;;;15.30;66.30;;;;;;4986535;28;20018;-82
2021/10/23 09:42:09;;;;;;;5.30;5.10;;;15.40;66.10;;;;;;5004009;28;20038;-82
2021/10/23 09:44:36;;;;;;;5.20;5.00;;;15.50;65.90;;;;;;4994815;28;20031;-81
2021/10/23 09:47:03;;;;;;;5.75;5.45;;;15.50;65.70;;;;;;4991199;28;20050;-81
2021/10/23 09:49:29;;;;;;;5.82;5.53;;;15.60;65.40;;;;;;4992227;28;20204;-82
2021/10/23 09:52:08;;;;;;;6.40;6.10;;;15.60;65.10;;;;;;5018979;28;20029;-82
2021/10/23 09:54:37;;;;;;;6.20;5.90;;;15.50;64.90;;;;;;5001983;28;20038;-89
2021/10/23 09:57:11;;;;;;;5.85;5.55;;;15.60;65.00;;;;;;5001762;28;20038;-83
2021/10/23 09:59:39;;;;;;;5.95;5.65;;;15.60;64.90;;;;;;4968013;28;20046;-79
2021/10/23 10:02:06;;;;;;;6.53;6.13;;;15.60;64.40;;;;;;4975691;28;20049;-81
2021/10/23 10:04:33;;;;;;;5.78;5.47;;;15.60;64.30;;;;;;4975328;28;20030;-82
2021/10/23 10:07:00;;;;;;;6.30;6.00;;;15.60;64.20;;;;;;4989466;28;20042;-82
2021/10/23 10:09:26;;;;;;;5.72;5.43;;;15.60;64.80;;;;;;4977235;28;20044;-82
2021/10/23 10:11:54;;;;;;;5.50;5.25;;;15.60;63.80;;;;;;4983690;28;20389;-82
2021/10/23 10:14:23;;;;;;;5.95;5.65;;;15.60;63.60;;;;;;4986007;28;20034;-83
2021/10/23 10:16:49;;;;;;;6.22;5.75;;;15.60;63.20;;;;;;4974368;28;20035;-86
2021/10/23 10:19:17;;;;;;;6.05;5.75;;;15.60;63.10;;;;;;5019018;28;20038;-83
2021/10/23 10:21:43;;;;;;;6.32;6.03;;;15.60;63.10;;;;;;4978888;28;20078;-83
2021/10/23 10:24:20;;;;;;;6.78;6.38;;;15.50;62.90;;;;;;4985803;28;20039;-81
2021/10/23 10:27:02;;;;;;;7.03;6.63;;;15.50;62.80;;;;;;4985263;28;20022;-81
2021/10/23 10:29:52;;;;;;;6.70;6.30;;;15.40;62.90;;;;;;5005135;28;20153;-84
2021/10/23 10:32:34;;;;;;;6.20;5.90;;;15.30;62.80;;;;;;4983530;28;20039;-83
2021/10/23 10:43:31;;;;;;;6.32;6.03;;;15.20;62.00;;;;;;4944038;28;20055;-84
2021/10/23 10:46:01;;;;;;;5.90;5.60;;;15.20;61.80;;;;;;4922574;29;20031;-83
2021/10/23 10:48:32;;;;;;;6.15;5.65;;;15.20;61.30;;;;;;4939203;29;20048;-83
2021/10/23 10:51:04;;;;;;;5.95;5.65;;;15.20;60.80;;;;;;4943012;28;20023;-82
2021/10/23 10:53:41;;;;;;;6.00;5.70;;;15.20;60.80;;;;;;4948321;29;20051;-84
2021/10/23 10:56:10;;;;;;;6.10;5.80;;;15.20;60.80;;;;;;4952682;28;20038;-86
2021/10/23 10:58:57;;;;;;;6.25;5.95;;;15.30;60.70;;;;;;4939821;29;20043;-85
2021/10/23 11:01:30;;;;;;;7.13;6.75;;;15.30;61.10;;;;;;4928989;28;20401;-82
2021/10/23 11:04:02;;;;;;;6.47;6.18;;;15.30;60.30;;;;;;4931358;28;20046;-82
2021/10/23 11:06:32;;;;;;;8.85;8.45;;;15.30;60.30;;;;;;4948987;29;20031;-83
2021/10/23 11:09:15;;;;;;;8.02;7.63;;;15.30;60.00;;;;;;4945585;28;20047;-81
2021/10/23 11:11:45;;;;;;;6.53;6.22;;;15.40;59.50;;;;;;4945448;28;20043;-83
2021/10/23 11:14:30;;;;;;;6.18;5.88;;;15.40;59.40;;;;;;4940146;29;20042;-84
2021/10/23 11:16:57;;;;;;;6.53;6.22;;;15.40;59.40;;;;;;4953148;28;20509;-82
2021/10/23 11:19:39;;;;;;;6.25;5.95;;;15.50;59.10;;;;;;4946797;28;20055;-84
2021/10/23 11:22:08;;;;;;;6.43;6.13;;;15.60;59.00;;;;;;4988538;28;20049;-83
2021/10/23 11:24:49;;;;;;;6.78;6.18;;;15.60;58.90;;;;;;5017373;28;20038;-86
2021/10/23 11:27:29;;;;;;;;;;;15.70;58.70;;;;;;4983152;28;20022;-83
2021/10/23 11:30:12;;;;;;;6.35;6.05;;;15.80;58.40;;;;;;4988917;28;19932;-83
2021/10/23 11:32:54;;;;;;;6.22;5.93;;;15.90;58.10;;;;;;4985778;28;20039;-84
2021/10/23 11:35:32;;;;;;;7.03;6.72;;;15.90;57.80;;;;;;5014109;28;20049;-81
2021/10/23 11:37:58;;;;;;;7.90;7.50;;;15.90;57.80;;;;;;4985858;28;20042;-82
2021/10/23 11:40:24;;;;;;;6.30;6.00;;;15.90;57.70;;;;;;4990947;28;20037;-82
2021/10/23 11:42:51;;;;;;;6.22;5.93;;;15.90;57.60;;;;;;4987807;28;20411;-82
2021/10/23 11:45:31;;;;;;;6.65;6.35;;;15.90;57.90;;;;;;5001995;28;20030;-82
2021/10/23 11:48:01;;;;;;;6.60;6.30;;;15.90;57.90;;;;;;4982146;28;20130;-82
2021/10/23 11:50:31;;;;;;;6.40;6.10;;;15.90;57.60;;;;;;5014515;28;20034;-82
2021/10/23 11:53:01;;;;;;;6.30;6.00;;;15.90;57.60;;;;;;4991531;28;20049;-83
2021/10/23 11:55:42;;;;;;;6.53;6.22;;;15.90;57.70;;;;;;4986827;28;20041;-83
2021/10/23 11:58:19;;;;;;;6.40;6.10;;;16.00;57.60;;;;;;5020993;28;20411;-81
2021/10/23 12:00:47;;;;;;;6.60;6.30;;;16.20;57.50;;;;;;4988579;28;20601;-81
2021/10/23 12:03:26;;;;;;;6.80;6.50;;;16.20;57.10;;;;;;4985077;28;20430;-82
2021/10/23 12:05:52;;;;;;;6.82;6.53;;;16.20;57.20;;;;;;4991356;28;20034;-81
2021/10/23 12:08:20;;;;;;;6.47;6.18;;;16.30;57.30;;;;;;4986206;28;20030;-81
2021/10/23 12:11:02;;;;;;;6.38;6.07;;;16.40;57.00;;;;;;4989459;28;20034;-81
2021/10/23 12:13:47;;;;;;;6.45;6.15;;;16.30;57.00;;;;;;4976291;28;20047;-81
2021/10/23 12:16:14;;;;;;;6.40;6.10;;;16.20;56.90;;;;;;4990363;28;20495;-81
2021/10/23 12:18:41;;;;;;;6.78;6.47;;;16.00;57.00;;;;;;4989572;28;20026;-82
2021/10/23 12:21:17;;;;;;;6.65;6.35;;;15.90;57.10;;;;;;4984903;28;20385;-82
2021/10/23 12:23:49;;;;;;;6.60;6.30;;;15.90;57.20;;;;;;4979705;28;20492;-82
2021/10/23 12:26:17;;;;;;;6.80;6.50;;;15.80;57.20;;;;;;4989419;28;20038;-82
2021/10/23 12:28:59;;;;;;;6.45;6.05;;;15.80;56.90;;;;;;5006637;28;20038;-83
2021/10/23 12:31:27;;;;;;;6.28;5.97;;;15.80;56.90;;;;;;4988341;28;20042;-82
2021/10/23 12:34:01;;;;;;;6.25;5.95;;;15.90;56.90;;;;;;4987696;28;20018;-82
2021/10/23 12:36:28;;;;;;;6.10;5.80;;;15.90;56.70;;;;;;4975479;28;20054;-82
2021/10/23 12:38:54;;;;;;;6.05;5.75;;;16.00;56.70;;;;;;4984075;28;20034;-82
2021/10/23 12:41:20;;;;;;;6.40;6.10;;;16.00;56.60;;;;;;4987035;28;20029;-82
2021/10/23 12:43:46;;;;;;;6.25;5.95;;;16.00;56.50;;;;;;4989862;28;20062;-81
2021/10/23 12:46:12;;;;;;;6.35;6.05;;;16.10;56.60;;;;;;4986921;28;20030;-82
2021/10/23 12:48:38;;;;;;;7.05;6.65;;;16.20;56.90;;;;;;4981183;28;20034;-83
2021/10/23 12:51:04;;;;;;;6.35;6.05;;;16.20;56.40;;;;;;4986411;28;20286;-83
2021/10/23 12:53:30;;;;;;;6.97;6.38;;;16.20;56.40;;;;;;5018442;28;20399;-82
2021/10/23 12:55:56;;;;;;;6.47;6.18;;;16.20;56.40;;;;;;4990092;28;20026;-83
2021/10/23 12:58:23;;;;;;;6.55;6.25;;;16.30;56.20;;;;;;5020010;28;20029;-82
2021/10/23 13:00:49;;;;;;;6.15;5.85;;;16.30;56.10;;;;;;4988751;28;20045;-82